createdAt,value
2018-09-13T00:01:36.133Z,81.40
2018-09-13T00:04:06.681Z,81.80
2018-09-13T00:06:37.336Z,81.90
2018-09-13T00:09:10.119Z,82.80
2018-09-13T00:11:40.671Z,81.80
2018-09-13T00:14:11.193Z,81.50
2018-09-13T00:16:41.741Z,81.50
2018-09-13T00:19:12.295Z,81.30
2018-09-13T00:21:43.111Z,81.10
2018-09-13T00:24:13.618Z,81.00
2018-09-13T00:26:44.254Z,80.90
2018-09-13T00:29:14.793Z,80.80
2018-09-13T00:31:45.396Z,81.20
2018-09-13T00:34:15.972Z,81.70
2018-09-13T00:36:46.496Z,81.80
2018-09-13T00:39:17.010Z,81.80
2018-09-13T00:41:47.539Z,81.70
2018-09-13T00:44:18.083Z,82.00
2018-09-13T00:46:48.614Z,82.00
2018-09-13T00:49:19.161Z,82.00
2018-09-13T00:51:49.735Z,81.80
2018-09-13T00:54:20.237Z,81.80
2018-09-13T00:56:50.811Z,82.20
2018-09-13T00:59:21.399Z,83.30
2018-09-13T01:01:52.397Z,82.60
2018-09-13T01:04:22.910Z,82.80
2018-09-13T01:06:53.454Z,82.90
2018-09-13T01:09:23.995Z,83.80
2018-09-13T01:11:54.471Z,83.00
2018-09-13T01:14:24.988Z,83.30
2018-09-13T01:16:55.550Z,84.20
2018-09-13T01:19:26.330Z,83.50
2018-09-13T01:21:56.881Z,84.10
2018-09-13T01:24:27.396Z,83.90
2018-09-13T01:26:57.962Z,84.20
2018-09-13T01:29:28.479Z,84.20
2018-09-13T01:31:59.031Z,84.20
2018-09-13T01:34:29.510Z,84.20
2018-09-13T01:37:00.339Z,84.10
2018-09-13T01:39:30.831Z,84.00
2018-09-13T01:42:01.586Z,84.10
2018-09-13T01:44:32.219Z,84.40
2018-09-13T01:47:02.941Z,84.40
2018-09-13T01:49:33.512Z,84.40
2018-09-13T01:52:04.111Z,84.30
2018-09-13T01:54:34.698Z,84.20
2018-09-13T01:57:05.256Z,84.40
2018-09-13T01:59:35.810Z,84.40
2018-09-13T02:02:06.755Z,84.60
2018-09-13T02:04:37.294Z,84.90
2018-09-13T02:07:07.940Z,85.30
2018-09-13T02:09:38.538Z,85.40
2018-09-13T02:12:09.134Z,85.60
2018-09-13T02:14:39.570Z,85.70
2018-09-13T02:17:10.162Z,86.00
2018-09-13T02:19:40.771Z,86.00
2018-09-13T02:22:11.314Z,85.90
2018-09-13T02:24:41.778Z,86.10
2018-09-13T02:27:12.341Z,86.20
2018-09-13T02:29:42.931Z,86.10
2018-09-13T02:32:13.511Z,85.70
2018-09-13T02:34:44.138Z,85.50
2018-09-13T02:37:14.734Z,85.50
2018-09-13T02:39:45.337Z,85.60
2018-09-13T02:42:15.971Z,85.50
2018-09-13T02:44:46.474Z,85.10
2018-09-13T02:47:17.140Z,85.10
2018-09-13T02:49:47.604Z,84.80
2018-09-13T02:52:18.157Z,84.80
2018-09-13T02:54:48.691Z,84.60
2018-09-13T02:57:19.294Z,84.80
2018-09-13T02:59:49.872Z,84.80
2018-09-13T03:02:20.475Z,84.70
2018-09-13T03:04:52.441Z,85.30
2018-09-13T03:07:23.083Z,85.40
2018-09-13T03:09:53.658Z,85.50
2018-09-13T03:12:25.438Z,85.60
2018-09-13T03:14:56.098Z,85.70
2018-09-13T03:17:26.681Z,85.80
2018-09-13T03:19:57.253Z,86.00
2018-09-13T03:22:27.796Z,85.90
2018-09-13T03:24:58.290Z,85.90
2018-09-13T03:27:28.999Z,85.80
2018-09-13T03:29:59.598Z,86.10
2018-09-13T03:32:30.121Z,86.10
2018-09-13T03:35:00.675Z,86.00
2018-09-13T03:37:31.290Z,85.80
2018-09-13T03:40:01.843Z,85.70
2018-09-13T03:42:32.410Z,85.50
2018-09-13T03:45:02.975Z,85.60
2018-09-13T03:47:33.541Z,85.50
2018-09-13T03:50:04.078Z,85.60
2018-09-13T03:52:34.975Z,85.60
2018-09-13T03:55:05.500Z,85.70
2018-09-13T03:57:36.134Z,85.70
2018-09-13T04:00:07.134Z,85.60
2018-09-13T04:02:37.723Z,85.70
2018-09-13T04:05:09.081Z,85.70
2018-09-13T04:07:39.636Z,85.60
2018-09-13T04:10:10.175Z,85.80
2018-09-13T04:12:40.812Z,85.80
2018-09-13T04:15:11.441Z,85.90
2018-09-13T04:17:42.178Z,85.90
2018-09-13T04:20:12.744Z,86.10
2018-09-13T04:22:43.435Z,86.30
2018-09-13T04:25:14.030Z,86.30
2018-09-13T04:27:45.012Z,86.40
2018-09-13T04:30:15.590Z,86.50
2018-09-13T04:33:26.235Z,86.60
2018-09-13T04:35:57.427Z,86.70
2018-09-13T04:38:29.917Z,86.70
2018-09-13T04:41:00.700Z,86.90
2018-09-13T04:43:31.497Z,87.10
2018-09-13T04:46:02.159Z,87.20
2018-09-13T04:48:33.194Z,87.40
2018-09-13T04:51:04.192Z,87.30
2018-09-13T04:53:34.955Z,87.60
2018-09-13T04:56:05.531Z,87.60
2018-09-13T04:58:36.251Z,87.70
2018-09-13T05:01:06.925Z,87.90
2018-09-13T05:03:37.541Z,87.90
2018-09-13T05:06:08.092Z,87.90
2018-09-13T05:08:38.850Z,88.10
2018-09-13T05:11:09.388Z,88.10
2018-09-13T05:13:40.013Z,88.20
2018-09-13T05:16:10.618Z,88.50
2018-09-13T05:18:41.282Z,88.90
2018-09-13T05:21:11.839Z,88.50
2018-09-13T05:23:42.442Z,88.00
2018-09-13T05:26:13.029Z,88.70
2018-09-13T05:28:43.631Z,88.80
2018-09-13T05:31:14.231Z,88.60
2018-09-13T05:33:44.843Z,88.90
2018-09-13T05:36:15.475Z,88.70
2018-09-13T05:38:46.132Z,88.80
2018-09-13T05:41:16.722Z,88.80
2018-09-13T05:43:47.346Z,88.90
2018-09-13T05:46:17.950Z,89.00
2018-09-13T05:48:48.984Z,89.00
2018-09-13T05:51:19.648Z,89.20
2018-09-13T05:53:50.214Z,89.30
2018-09-13T05:56:20.750Z,89.40
2018-09-13T05:58:51.415Z,89.70
2018-09-13T06:01:22.015Z,90.00
2018-09-13T06:03:52.661Z,90.10
2018-09-13T06:06:23.257Z,90.20
2018-09-13T06:08:53.916Z,90.30
2018-09-13T06:11:24.499Z,90.40
2018-09-13T06:13:55.091Z,90.40
2018-09-13T06:16:25.727Z,90.50
2018-09-13T06:18:56.295Z,90.50
2018-09-13T06:21:26.768Z,90.50
2018-09-13T06:23:57.401Z,90.60
2018-09-13T06:26:27.850Z,90.60
2018-09-13T06:28:58.424Z,90.80
2018-09-13T06:31:28.965Z,90.70
2018-09-13T06:33:59.645Z,90.60
2018-09-13T06:36:30.170Z,90.70
2018-09-13T06:39:00.770Z,90.60
2018-09-13T06:41:31.400Z,90.60
2018-09-13T06:44:02.038Z,90.60
2018-09-13T06:46:32.546Z,90.60
2018-09-13T06:49:03.281Z,90.80
2018-09-13T06:51:33.841Z,90.70
2018-09-13T06:54:04.460Z,90.70
2018-09-13T06:56:35.015Z,90.70
2018-09-13T06:59:05.771Z,90.70
2018-09-13T07:01:36.438Z,91.00
2018-09-13T07:04:07.198Z,90.70
2018-09-13T07:06:37.836Z,90.70
2018-09-13T07:09:13.605Z,90.80
2018-09-13T07:11:45.099Z,90.90
2018-09-13T07:14:15.643Z,90.80
2018-09-13T07:16:46.197Z,90.70
2018-09-13T07:19:16.797Z,90.70
2018-09-13T07:21:47.262Z,90.50
2018-09-13T07:24:17.854Z,90.60
2018-09-13T07:26:48.456Z,90.60
2018-09-13T07:29:19.045Z,90.80
2018-09-13T07:31:49.683Z,90.40
2018-09-13T07:34:20.263Z,90.30
2018-09-13T07:36:50.697Z,90.30
2018-09-13T07:39:21.270Z,90.30
2018-09-13T07:41:51.866Z,90.30
2018-09-13T07:44:22.424Z,90.30
2018-09-13T07:46:52.984Z,90.20
2018-09-13T07:49:23.693Z,90.10
2018-09-13T07:51:54.248Z,90.20
2018-09-13T07:54:24.880Z,90.20
2018-09-13T07:56:55.459Z,90.10
2018-09-13T07:59:26.574Z,90.00
2018-09-13T08:01:57.189Z,89.90
2018-09-13T08:04:27.835Z,89.90
2018-09-13T08:06:58.435Z,89.70
2018-09-13T08:09:35.629Z,89.50
2018-09-13T08:12:06.406Z,89.40
2018-09-13T08:14:36.886Z,89.30
2018-09-13T08:17:07.400Z,89.30
2018-09-13T08:19:37.956Z,89.30
2018-09-13T08:22:08.889Z,89.40
2018-09-13T08:24:39.562Z,89.30
2018-09-13T08:27:10.354Z,89.20
2018-09-13T08:29:40.856Z,89.10
2018-09-13T08:32:11.456Z,88.80
2018-09-13T08:34:42.136Z,88.70
2018-09-13T08:37:12.768Z,88.90
2018-09-13T08:39:43.413Z,88.60
2018-09-13T08:42:14.037Z,88.50
2018-09-13T08:44:44.618Z,88.30
2018-09-13T08:47:15.229Z,88.20
2018-09-13T08:49:45.841Z,88.40
2018-09-13T08:52:16.418Z,88.80
2018-09-13T08:54:47.411Z,89.30
2018-09-13T08:57:18.024Z,89.00
2018-09-13T08:59:48.727Z,88.60
2018-09-13T09:02:19.294Z,88.80
2018-09-13T09:04:49.909Z,88.80
2018-09-13T09:07:20.432Z,88.50
2018-09-13T09:09:53.994Z,88.60
2018-09-13T09:12:24.593Z,88.40
2018-09-13T09:14:55.292Z,88.30
2018-09-13T09:17:25.854Z,88.20
2018-09-13T09:19:56.641Z,88.00
2018-09-13T09:22:27.302Z,87.70
2018-09-13T09:24:58.191Z,87.00
2018-09-13T09:27:28.984Z,86.70
2018-09-13T09:29:59.635Z,86.80
2018-09-13T09:32:30.163Z,87.10
2018-09-13T09:35:00.785Z,87.10
2018-09-13T09:37:31.351Z,86.90
2018-09-13T09:40:01.894Z,87.00
2018-09-13T09:42:32.377Z,86.60
2018-09-13T09:45:02.942Z,86.80
2018-09-13T09:47:33.515Z,86.70
2018-09-13T09:50:04.316Z,86.00
2018-09-13T09:52:34.876Z,85.60
2018-09-13T09:55:06.512Z,85.50
2018-09-13T09:57:37.173Z,85.40
2018-09-13T10:00:08.009Z,84.90
2018-09-13T10:02:38.636Z,84.30
2018-09-13T10:05:09.381Z,84.00
2018-09-13T10:07:39.897Z,83.50
2018-09-13T10:10:10.783Z,83.50
2018-09-13T10:12:41.287Z,83.00
2018-09-13T10:15:16.935Z,82.50
2018-09-13T10:17:52.467Z,82.10
2018-09-13T10:20:28.017Z,81.50
2018-09-13T10:23:03.751Z,81.30
2018-09-13T10:25:39.457Z,81.40
2018-09-13T10:29:17.713Z,81.20
2018-09-13T10:31:53.432Z,80.90
2018-09-13T10:34:29.157Z,81.10
2018-09-13T10:37:04.941Z,81.20
2018-09-13T10:39:40.636Z,80.70
2018-09-13T10:42:16.169Z,80.40
2018-09-13T10:44:51.769Z,80.20
2018-09-13T10:47:27.366Z,79.70
2018-09-13T10:50:02.942Z,79.80
2018-09-13T10:52:38.099Z,78.80
2018-09-13T10:55:08.820Z,79.40
2018-09-13T10:57:43.649Z,78.90
2018-09-13T11:00:15.117Z,78.80
2018-09-13T11:02:45.738Z,78.70
2018-09-13T11:05:16.438Z,78.10
2018-09-13T11:07:47.170Z,77.50
2018-09-13T11:10:17.771Z,77.40
2018-09-13T11:12:55.959Z,77.50
2018-09-13T11:15:31.215Z,77.60
2018-09-13T11:18:02.037Z,77.70
2018-09-13T11:20:33.313Z,77.50
2018-09-13T11:23:04.043Z,77.10
2018-09-13T11:25:34.674Z,76.30
2018-09-13T11:28:05.198Z,75.90
2018-09-13T11:30:35.919Z,75.80
2018-09-13T11:33:06.700Z,75.50
2018-09-13T11:35:37.254Z,75.20
2018-09-13T11:38:07.881Z,75.40
2018-09-13T11:40:38.815Z,75.30
2018-09-13T11:43:09.341Z,74.80
2018-09-13T11:45:39.939Z,75.00
2018-09-13T11:48:10.629Z,75.10
2018-09-13T11:50:41.171Z,75.00
2018-09-13T11:53:12.134Z,74.40
2018-09-13T11:55:42.713Z,73.80
2018-09-13T11:58:15.152Z,73.80
2018-09-13T12:00:45.840Z,73.20
2018-09-13T12:03:16.381Z,73.40
2018-09-13T12:05:46.951Z,73.70
2018-09-13T12:08:17.501Z,73.90
2018-09-13T12:10:48.164Z,72.90
2018-09-13T12:13:18.892Z,72.40
2018-09-13T12:15:49.441Z,71.80
2018-09-13T12:18:20.140Z,71.80
2018-09-13T12:20:50.703Z,71.30
2018-09-13T12:23:21.330Z,71.20
2018-09-13T12:25:51.882Z,70.90
2018-09-13T12:28:22.590Z,70.30
2018-09-13T12:30:53.223Z,70.00
2018-09-13T12:33:23.871Z,69.70
2018-09-13T12:35:54.456Z,69.70
2018-09-13T12:38:25.040Z,69.10
2018-09-13T12:40:55.486Z,68.20
2018-09-13T12:43:25.968Z,67.80
2018-09-13T12:45:56.425Z,67.30
2018-09-13T12:48:26.982Z,68.10
2018-09-13T12:50:57.591Z,67.80
2018-09-13T12:53:28.072Z,68.40
2018-09-13T12:55:58.521Z,68.60
2018-09-13T12:58:29.131Z,67.80
2018-09-13T13:00:59.800Z,67.80
2018-09-13T13:03:30.341Z,68.00
2018-09-13T13:06:00.861Z,67.70
2018-09-13T13:08:31.394Z,67.90
2018-09-13T13:11:02.010Z,67.40
2018-09-13T13:13:32.611Z,67.40
2018-09-13T13:16:03.179Z,67.80
2018-09-13T13:18:33.793Z,67.50
2018-09-13T13:21:04.380Z,67.60
2018-09-13T13:23:35.041Z,67.00
2018-09-13T13:26:05.744Z,67.40
2018-09-13T13:28:36.483Z,66.00
2018-09-13T13:31:07.136Z,66.30
2018-09-13T13:33:37.959Z,66.40
2018-09-13T13:36:08.518Z,65.70
2018-09-13T13:38:39.184Z,65.10
2018-09-13T13:41:09.842Z,64.50
2018-09-13T13:43:40.581Z,64.40
2018-09-13T13:46:11.072Z,64.50
2018-09-13T13:48:41.818Z,64.50
2018-09-13T13:51:12.410Z,64.20
2018-09-13T13:53:42.983Z,63.20
2018-09-13T13:56:13.490Z,62.20
2018-09-13T13:58:44.162Z,61.60
2018-09-13T14:01:14.712Z,61.20
2018-09-13T14:03:45.288Z,61.40
2018-09-13T14:06:15.940Z,61.70
2018-09-13T14:08:46.506Z,61.50
2018-09-13T14:11:17.036Z,62.50
2018-09-13T14:13:47.598Z,61.30
2018-09-13T14:16:18.031Z,61.20
2018-09-13T14:18:48.725Z,62.50
2018-09-13T14:21:19.333Z,60.30
2018-09-13T14:23:49.934Z,60.50
2018-09-13T14:26:20.500Z,60.20
2018-09-13T14:28:50.977Z,60.80
2018-09-13T14:31:21.644Z,60.50
2018-09-13T14:33:52.279Z,61.00
2018-09-13T14:36:22.966Z,60.70
2018-09-13T14:38:53.593Z,60.90
2018-09-13T14:41:24.266Z,60.70
2018-09-13T14:43:55.596Z,60.30
2018-09-13T14:46:26.150Z,59.90
2018-09-13T14:48:56.718Z,59.80
2018-09-13T14:51:27.399Z,59.80
2018-09-13T14:53:57.991Z,59.40
2018-09-13T14:56:28.874Z,59.60
2018-09-13T14:58:59.510Z,59.60
2018-09-13T15:01:29.886Z,59.50
2018-09-13T15:04:00.484Z,59.60
2018-09-13T15:06:31.131Z,59.50
2018-09-13T15:09:01.737Z,59.30
2018-09-13T15:11:32.186Z,59.60
2018-09-13T15:14:02.802Z,59.80
2018-09-13T15:16:33.432Z,59.60
2018-09-13T15:19:04.057Z,59.40
2018-09-13T15:21:34.716Z,59.10
2018-09-13T15:24:05.719Z,59.00
2018-09-13T15:26:36.215Z,59.00
2018-09-13T15:29:07.025Z,59.10
2018-09-13T15:31:37.702Z,59.00
2018-09-13T15:34:08.434Z,58.90
2018-09-13T15:36:39.040Z,59.00
2018-09-13T15:39:12.970Z,58.50
2018-09-13T15:41:43.453Z,58.50
2018-09-13T15:44:14.139Z,58.50
2018-09-13T15:46:44.713Z,58.40
2018-09-13T15:49:15.374Z,58.40
2018-09-13T15:51:45.997Z,58.50
2018-09-13T15:54:16.724Z,58.60
2018-09-13T15:56:47.255Z,58.40
2018-09-13T15:59:18.216Z,58.20
2018-09-13T16:01:49.098Z,58.10
2018-09-13T16:04:19.680Z,58.10
2018-09-13T16:06:50.303Z,57.90
2018-09-13T16:09:20.909Z,58.00
2018-09-13T16:11:51.501Z,58.10
2018-09-13T16:14:22.035Z,58.20
2018-09-13T16:16:52.582Z,58.30
2018-09-13T16:19:23.459Z,58.40
2018-09-13T16:21:53.914Z,58.50
2018-09-13T16:24:24.503Z,58.40
2018-09-13T16:26:54.954Z,58.20
2018-09-13T16:29:25.502Z,58.00
2018-09-13T16:31:56.155Z,58.10
2018-09-13T16:34:26.802Z,58.00
2018-09-13T16:37:10.169Z,58.10
2018-09-13T16:39:46.270Z,58.10
2018-09-13T16:42:21.824Z,58.20
2018-09-13T16:44:55.974Z,58.20
2018-09-13T16:47:33.054Z,58.00
2018-09-13T16:50:04.400Z,57.80
2018-09-13T16:52:35.009Z,57.60
2018-09-13T16:55:05.830Z,57.50
2018-09-13T16:57:36.352Z,57.50
2018-09-13T17:00:07.582Z,57.60
2018-09-13T17:02:38.154Z,57.60
2018-09-13T17:05:08.718Z,57.70
2018-09-13T17:07:39.274Z,57.80
2018-09-13T17:10:10.219Z,58.00
2018-09-13T17:12:40.845Z,58.00
2018-09-13T17:15:11.505Z,58.10
2018-09-13T17:17:42.091Z,58.40
2018-09-13T17:20:12.680Z,58.10
2018-09-13T17:22:43.333Z,58.60
2018-09-13T17:25:13.931Z,58.70
2018-09-13T17:27:45.439Z,58.60
2018-09-13T17:30:15.990Z,58.10
2018-09-13T17:32:46.526Z,58.70
2018-09-13T17:35:17.190Z,58.80
2018-09-13T17:37:47.770Z,58.90
2018-09-13T17:40:18.321Z,59.00
2018-09-13T17:42:48.849Z,59.00
2018-09-13T17:45:19.405Z,59.20
2018-09-13T17:47:49.896Z,59.30
2018-09-13T17:52:56.531Z,59.60
2018-09-13T17:55:27.854Z,59.80
2018-09-13T17:58:05.718Z,59.90
2018-09-13T18:00:36.493Z,60.20
2018-09-13T18:03:07.220Z,60.10
2018-09-13T18:05:37.790Z,60.20
2018-09-13T18:08:10.337Z,60.20
2018-09-13T18:10:41.062Z,60.10
2018-09-13T18:13:16.103Z,60.30
2018-09-13T18:15:46.678Z,60.40
2018-09-13T18:18:17.191Z,60.70
2018-09-13T18:20:47.910Z,60.80
2018-09-13T18:23:18.697Z,61.10
2018-09-13T18:25:49.239Z,61.20
2018-09-13T18:28:19.701Z,61.20
2018-09-13T18:30:50.337Z,61.40
2018-09-13T18:33:20.924Z,61.50
2018-09-13T18:35:51.528Z,61.60
2018-09-13T18:38:22.172Z,61.70
2018-09-13T18:40:52.810Z,61.90
2018-09-13T18:43:23.316Z,62.20
2018-09-13T18:45:53.837Z,62.50
2018-09-13T18:48:24.358Z,62.90
2018-09-13T18:50:55.010Z,62.90
2018-09-13T18:53:25.913Z,63.20
2018-09-13T18:55:56.585Z,63.40
2018-09-13T18:58:27.500Z,64.30
2018-09-13T19:00:58.026Z,63.80
2018-09-13T19:03:28.615Z,63.80
2018-09-13T19:05:59.081Z,64.00
2018-09-13T19:08:29.578Z,64.00
2018-09-13T19:11:00.121Z,64.90
2018-09-13T19:13:30.620Z,64.20
2018-09-13T19:16:01.342Z,64.30
2018-09-13T19:18:31.957Z,64.50
2018-09-13T19:21:02.660Z,64.50
2018-09-13T19:23:33.259Z,64.80
2018-09-13T19:26:03.950Z,65.00
2018-09-13T19:28:34.515Z,65.20
2018-09-13T19:31:05.576Z,65.20
2018-09-13T19:33:36.178Z,65.30
2018-09-13T19:36:06.839Z,65.30
2018-09-13T19:38:37.599Z,65.40
2018-09-13T19:41:08.317Z,65.50
2018-09-13T19:43:38.981Z,65.70
2018-09-13T19:46:09.600Z,65.90
2018-09-13T19:48:40.176Z,65.90
2018-09-13T19:51:10.831Z,66.20
2018-09-13T19:53:41.470Z,66.40
2018-09-13T19:56:12.112Z,66.70
2018-09-13T19:58:43.014Z,67.00
2018-09-13T20:01:13.624Z,66.90
2018-09-13T20:03:44.163Z,67.20
2018-09-13T20:06:14.807Z,67.30
2018-09-13T20:08:45.420Z,67.50
2018-09-13T20:11:16.338Z,67.70
2018-09-13T20:13:47.003Z,67.80
2018-09-13T20:16:18.021Z,68.20
2018-09-13T20:18:48.632Z,68.20
2018-09-13T20:21:19.302Z,68.40
2018-09-13T20:23:49.880Z,68.40
2018-09-13T20:26:20.615Z,68.40
2018-09-13T20:28:51.277Z,68.60
2018-09-13T20:31:22.048Z,68.60
2018-09-13T20:33:52.705Z,68.70
2018-09-13T20:36:23.306Z,68.90
2018-09-13T20:38:54.011Z,69.10
2018-09-13T20:41:24.713Z,69.10
2018-09-13T20:43:55.266Z,69.20
2018-09-13T20:46:25.932Z,69.30
2018-09-13T20:48:56.397Z,70.10
2018-09-13T20:51:27.018Z,69.50
2018-09-13T20:53:57.600Z,69.40
2018-09-13T20:56:28.180Z,69.60
2018-09-13T20:58:58.697Z,69.80
2018-09-13T21:01:29.270Z,69.90
2018-09-13T21:03:59.802Z,70.00
2018-09-13T21:06:30.453Z,70.20
2018-09-13T21:09:01.059Z,70.20
2018-09-13T21:11:31.672Z,70.20
2018-09-13T21:14:02.280Z,70.30
2018-09-13T21:16:32.894Z,70.10
2018-09-13T21:19:03.535Z,70.10
2018-09-13T21:21:34.107Z,70.30
2018-09-13T21:24:04.779Z,70.40
2018-09-13T21:26:35.395Z,70.60
2018-09-13T21:29:06.052Z,70.70
2018-09-13T21:31:36.752Z,70.90
2018-09-13T21:34:07.431Z,70.80
2018-09-13T21:36:38.072Z,71.00
2018-09-13T21:39:11.209Z,71.10
2018-09-13T21:41:42.063Z,71.00
2018-09-13T21:44:12.578Z,71.00
2018-09-13T21:46:43.430Z,71.10
2018-09-13T21:49:13.931Z,71.30
2018-09-13T21:51:44.639Z,71.30
2018-09-13T21:54:15.152Z,70.90
2018-09-13T21:56:45.714Z,70.30
2018-09-13T21:59:16.580Z,69.70
2018-09-13T22:01:47.161Z,69.20
2018-09-13T22:04:17.761Z,68.70
2018-09-13T22:06:48.317Z,68.30
2018-09-13T22:09:18.827Z,68.10
2018-09-13T22:11:49.505Z,67.70
2018-09-13T22:14:20.110Z,67.50
2018-09-13T22:16:50.770Z,67.30
2018-09-13T22:19:21.350Z,67.00
2018-09-13T22:21:52.201Z,66.90
2018-09-13T22:24:22.735Z,66.90
2018-09-13T22:26:53.320Z,66.70
2018-09-13T22:29:23.860Z,66.70
2018-09-13T22:31:54.464Z,66.80
2018-09-13T22:34:25.002Z,66.70
2018-09-13T22:36:55.527Z,66.70
2018-09-13T22:39:26.023Z,66.50
2018-09-13T22:41:58.861Z,66.70
2018-09-13T22:44:32.822Z,66.70
2018-09-13T22:47:03.418Z,66.70
2018-09-13T22:49:33.874Z,66.50
2018-09-13T22:52:04.520Z,66.30
2018-09-13T22:54:35.100Z,66.30
2018-09-13T22:57:07.451Z,66.00
2018-09-13T22:59:38.035Z,65.90
2018-09-13T23:02:08.654Z,65.90
2018-09-13T23:04:39.160Z,65.90
2018-09-13T23:07:13.218Z,65.90
2018-09-13T23:09:43.739Z,66.00
2018-09-13T23:12:14.334Z,66.00
2018-09-13T23:14:45.011Z,66.20
2018-09-13T23:17:15.921Z,66.20
2018-09-13T23:19:46.570Z,66.30
2018-09-13T23:22:17.176Z,66.40
2018-09-13T23:24:47.630Z,66.50
2018-09-13T23:27:18.262Z,66.60
2018-09-13T23:29:48.761Z,66.70
2018-09-13T23:32:19.294Z,66.90
2018-09-13T23:34:49.835Z,66.90
2018-09-13T23:37:20.587Z,67.00
2018-09-13T23:39:51.283Z,67.10
2018-09-13T23:42:22.285Z,67.10
2018-09-13T23:44:52.735Z,67.10
2018-09-13T23:47:23.345Z,67.20
2018-09-13T23:49:53.938Z,67.30
2018-09-13T23:52:24.852Z,67.30
2018-09-13T23:54:55.391Z,67.50
2018-09-13T23:57:26.137Z,67.50
2018-09-13T23:59:56.674Z,67.50
